createdAt,value
2022-12-12T00:01:02.944Z,986.05
2022-12-12T00:02:00.102Z,986.04
2022-12-12T00:02:58.202Z,986.15
2022-12-12T00:03:58.092Z,986.11
2022-12-12T00:04:58.084Z,986.14
2022-12-12T00:05:58.073Z,986.11
2022-12-12T00:06:58.065Z,986.10
2022-12-12T00:07:58.088Z,986.10
2022-12-12T00:08:58.067Z,986.12
2022-12-12T00:09:58.050Z,986.12
2022-12-12T00:10:58.059Z,986.08
2022-12-12T00:11:58.031Z,986.12
2022-12-12T00:12:58.023Z,986.04
2022-12-12T00:13:58.007Z,986.15
2022-12-12T00:14:58.001Z,986.13
2022-12-12T00:15:58.073Z,986.13
2022-12-12T00:16:57.992Z,986.12
2022-12-12T00:17:57.980Z,986.04
2022-12-12T00:18:57.982Z,986.00
2022-12-12T00:19:57.965Z,986.00
2022-12-12T00:20:57.989Z,986.02
2022-12-12T00:21:57.952Z,986.02
2022-12-12T00:22:57.939Z,986.06
2022-12-12T00:23:57.943Z,986.01
2022-12-12T00:24:57.916Z,986.03
2022-12-12T00:25:58.921Z,986.08
2022-12-12T00:27:58.461Z,986.05
2022-12-12T00:28:58.434Z,986.05
2022-12-12T00:29:58.435Z,986.02
2022-12-12T00:30:58.483Z,986.07
2022-12-12T00:31:59.523Z,986.06
2022-12-12T00:32:59.513Z,986.05
2022-12-12T00:33:59.491Z,986.08
2022-12-12T00:34:59.480Z,986.10
2022-12-12T00:35:59.478Z,986.10
2022-12-12T00:36:59.470Z,986.04
2022-12-12T00:37:59.457Z,986.01
2022-12-12T00:38:59.462Z,986.00
2022-12-12T00:39:59.441Z,985.96
2022-12-12T00:40:59.438Z,986.00
2022-12-12T00:41:59.427Z,986.03
2022-12-12T00:42:59.429Z,986.01
2022-12-12T00:43:59.430Z,986.01
2022-12-12T00:44:59.409Z,986.08
2022-12-12T00:45:59.523Z,986.06
2022-12-12T00:46:59.397Z,986.11
2022-12-12T00:47:59.384Z,986.09
2022-12-12T00:48:59.383Z,986.05
2022-12-12T00:49:59.368Z,986.15
2022-12-12T00:50:59.367Z,986.13
2022-12-12T00:51:59.354Z,986.17
2022-12-12T00:52:59.346Z,986.17
2022-12-12T00:53:59.339Z,986.14
2022-12-12T00:54:59.328Z,986.15
2022-12-12T00:55:59.327Z,986.17
2022-12-12T00:56:59.311Z,986.16
2022-12-12T00:57:59.304Z,986.17
2022-12-12T00:58:59.292Z,986.14
2022-12-12T00:59:59.292Z,986.20
2022-12-12T01:00:59.277Z,986.16
2022-12-12T01:01:59.301Z,986.20
2022-12-12T01:02:59.342Z,986.16
2022-12-12T01:03:59.261Z,986.22
2022-12-12T01:04:59.248Z,986.22
2022-12-12T01:05:59.239Z,986.27
2022-12-12T01:06:59.237Z,986.30
2022-12-12T01:07:59.282Z,986.22
2022-12-12T01:08:59.217Z,986.26
2022-12-12T01:09:59.208Z,986.31
2022-12-12T01:10:59.215Z,986.32
2022-12-12T01:11:59.206Z,986.31
2022-12-12T01:12:59.800Z,986.32
2022-12-12T01:13:59.177Z,986.33
2022-12-12T01:14:59.178Z,986.38
2022-12-12T01:15:59.326Z,986.44
2022-12-12T01:16:59.159Z,986.39
2022-12-12T01:17:59.150Z,986.38
2022-12-12T01:18:59.144Z,986.37
2022-12-12T01:19:59.129Z,986.44
2022-12-12T01:20:59.129Z,986.45
2022-12-12T01:21:59.121Z,986.47
2022-12-12T01:22:59.112Z,986.47
2022-12-12T01:23:59.114Z,986.45
2022-12-12T01:24:59.093Z,986.50
2022-12-12T01:25:59.087Z,986.49
2022-12-12T01:26:59.091Z,986.46
2022-12-12T01:27:59.067Z,986.51
2022-12-12T01:28:59.077Z,986.48
2022-12-12T01:29:59.066Z,986.48
2022-12-12T01:30:59.136Z,986.54
2022-12-12T01:31:59.115Z,986.48
2022-12-12T01:32:59.036Z,986.52
2022-12-12T01:33:59.040Z,986.49
2022-12-12T01:34:59.027Z,986.51
2022-12-12T01:35:59.004Z,986.52
2022-12-12T01:36:59.003Z,986.49
2022-12-12T01:37:59.002Z,986.58
2022-12-12T01:38:59.011Z,986.60
2022-12-12T01:39:58.983Z,986.53
2022-12-12T01:40:58.969Z,986.52
2022-12-12T01:41:58.958Z,986.58
2022-12-12T01:42:58.956Z,986.51
2022-12-12T01:43:58.952Z,986.59
2022-12-12T01:44:58.932Z,986.53
2022-12-12T01:45:58.931Z,986.52
2022-12-12T01:46:58.939Z,986.57
2022-12-12T01:48:03.556Z,986.51
2022-12-12T01:49:00.903Z,986.57
2022-12-12T01:49:58.896Z,986.56
2022-12-12T01:50:58.883Z,986.57
2022-12-12T01:51:59.886Z,986.56
2022-12-12T01:52:58.899Z,986.55
2022-12-12T01:53:58.859Z,986.58
2022-12-12T01:54:58.853Z,986.54
2022-12-12T01:55:58.849Z,986.53
2022-12-12T01:56:58.842Z,986.47
2022-12-12T01:57:58.845Z,986.50
2022-12-12T01:58:58.835Z,986.50
2022-12-12T01:59:58.838Z,986.48
2022-12-12T02:00:58.867Z,986.47
2022-12-12T02:01:58.885Z,986.49
2022-12-12T02:02:58.790Z,986.48
2022-12-12T02:03:58.789Z,986.54
2022-12-12T02:04:58.786Z,986.47
2022-12-12T02:05:58.779Z,986.54
2022-12-12T02:06:58.763Z,986.52
2022-12-12T02:07:58.798Z,986.53
2022-12-12T02:08:58.757Z,986.54
2022-12-12T02:09:58.817Z,986.47
2022-12-12T02:10:58.872Z,986.48
2022-12-12T02:11:58.722Z,986.56
2022-12-12T02:12:58.719Z,986.58
2022-12-12T02:13:58.714Z,986.52
2022-12-12T02:14:58.714Z,986.50
2022-12-12T02:15:58.751Z,986.52
2022-12-12T02:16:58.707Z,986.53
2022-12-12T02:18:02.250Z,986.50
2022-12-12T02:18:59.691Z,986.49
2022-12-12T02:19:58.690Z,986.52
2022-12-12T02:20:58.680Z,986.54
2022-12-12T02:21:58.654Z,986.56
2022-12-12T02:22:58.655Z,986.57
2022-12-12T02:23:58.633Z,986.58
2022-12-12T02:24:58.642Z,986.60
2022-12-12T02:25:58.618Z,986.56
2022-12-12T02:26:58.605Z,986.60
2022-12-12T02:27:58.630Z,986.55
2022-12-12T02:28:58.603Z,986.59
2022-12-12T02:29:58.587Z,986.61
2022-12-12T02:30:59.590Z,986.61
2022-12-12T02:31:58.580Z,986.62
2022-12-12T02:32:58.564Z,986.62
2022-12-12T02:35:06.032Z,986.65
2022-12-12T02:36:06.007Z,986.65
2022-12-12T02:37:06.008Z,986.64
2022-12-12T02:38:05.992Z,986.68
2022-12-12T02:39:07.080Z,986.64
2022-12-12T02:40:07.073Z,986.66
2022-12-12T02:41:07.063Z,986.72
2022-12-12T02:42:07.063Z,986.72
2022-12-12T02:43:07.085Z,986.75
2022-12-12T02:44:07.045Z,986.76
2022-12-12T02:45:07.047Z,986.75
2022-12-12T02:46:07.029Z,986.70
2022-12-12T02:47:07.037Z,986.79
2022-12-12T02:48:07.012Z,986.79
2022-12-12T02:49:07.002Z,986.74
2022-12-12T02:50:07.020Z,986.76
2022-12-12T02:51:06.989Z,986.82
2022-12-12T02:52:06.982Z,986.80
2022-12-12T02:53:06.975Z,986.79
2022-12-12T02:54:06.970Z,986.74
2022-12-12T02:55:06.957Z,986.77
2022-12-12T02:56:06.954Z,986.75
2022-12-12T02:57:06.945Z,986.76
2022-12-12T02:58:07.435Z,986.84
2022-12-12T02:59:06.960Z,986.81
2022-12-12T03:00:06.921Z,986.80
2022-12-12T03:01:06.961Z,986.80
2022-12-12T03:02:06.993Z,986.83
2022-12-12T03:03:06.888Z,986.82
2022-12-12T03:04:06.889Z,986.81
2022-12-12T03:05:06.879Z,986.77
2022-12-12T03:06:06.881Z,986.78
2022-12-12T03:07:06.903Z,986.79
2022-12-12T03:08:06.878Z,986.78
2022-12-12T03:09:06.849Z,986.78
2022-12-12T03:10:06.866Z,986.80
2022-12-12T03:11:06.862Z,986.77
2022-12-12T03:12:06.823Z,986.79
2022-12-12T03:13:06.838Z,986.78
2022-12-12T03:14:06.826Z,986.77
2022-12-12T03:15:06.877Z,986.76
2022-12-12T03:16:06.974Z,986.80
2022-12-12T03:17:06.794Z,986.81
2022-12-12T03:18:07.369Z,986.75
2022-12-12T03:19:06.774Z,986.80
2022-12-12T03:20:06.769Z,986.83
2022-12-12T03:21:06.754Z,986.79
2022-12-12T03:22:06.750Z,986.84
2022-12-12T03:23:06.758Z,986.89
2022-12-12T03:24:06.732Z,986.82
2022-12-12T03:25:06.725Z,986.89
2022-12-12T03:26:06.717Z,986.85
2022-12-12T03:27:06.719Z,986.88
2022-12-12T03:28:06.705Z,986.87
2022-12-12T03:29:06.695Z,986.90
2022-12-12T03:30:06.693Z,986.88
2022-12-12T03:31:06.677Z,986.85
2022-12-12T03:32:06.672Z,986.89
2022-12-12T03:33:06.677Z,986.85
2022-12-12T03:34:06.654Z,986.90
2022-12-12T03:35:06.644Z,986.86
2022-12-12T03:36:06.642Z,986.93
2022-12-12T03:37:06.710Z,986.92
2022-12-12T03:38:06.648Z,986.88
2022-12-12T03:39:06.685Z,986.86
2022-12-12T03:40:06.611Z,986.87
2022-12-12T03:41:06.663Z,986.88
2022-12-12T03:42:06.621Z,986.88
2022-12-12T03:43:06.620Z,986.85
2022-12-12T03:44:06.681Z,986.83
2022-12-12T03:45:06.576Z,986.87
2022-12-12T03:46:06.603Z,986.82
2022-12-12T03:47:06.575Z,986.85
2022-12-12T03:48:06.571Z,986.89
2022-12-12T03:49:06.537Z,986.89
2022-12-12T03:50:06.544Z,986.88
2022-12-12T03:51:06.547Z,986.83
2022-12-12T03:52:06.535Z,986.85
2022-12-12T03:53:06.524Z,986.83
2022-12-12T03:54:06.520Z,986.82
2022-12-12T03:55:06.504Z,986.88
2022-12-12T03:56:06.534Z,986.84
2022-12-12T03:57:06.505Z,986.83
2022-12-12T03:58:06.518Z,986.86
2022-12-12T03:59:06.468Z,986.87
2022-12-12T04:00:06.456Z,986.89
2022-12-12T04:01:06.499Z,986.87
2022-12-12T04:02:06.517Z,986.83
2022-12-12T04:03:06.429Z,986.88
2022-12-12T04:04:06.502Z,986.96
2022-12-12T04:05:06.411Z,986.89
2022-12-12T04:06:06.405Z,986.92
2022-12-12T04:07:06.952Z,986.94
2022-12-12T04:08:06.426Z,986.87
2022-12-12T04:09:06.388Z,986.92
2022-12-12T04:10:06.384Z,986.91
2022-12-12T04:11:06.378Z,986.90
2022-12-12T04:12:06.365Z,986.92
2022-12-12T04:13:06.355Z,986.89
2022-12-12T04:14:06.347Z,986.93
2022-12-12T04:15:06.330Z,986.95
2022-12-12T04:16:06.476Z,986.94
2022-12-12T04:17:06.313Z,987.02
2022-12-12T04:18:06.332Z,986.95
2022-12-12T04:19:06.307Z,986.95
2022-12-12T04:20:06.334Z,986.99
2022-12-12T04:21:06.285Z,986.98
2022-12-12T04:22:06.283Z,986.92
2022-12-12T04:23:06.286Z,986.91
2022-12-12T04:24:06.267Z,986.94
2022-12-12T04:25:06.252Z,986.96
2022-12-12T04:26:06.246Z,986.95
2022-12-12T04:27:06.246Z,986.97
2022-12-12T04:28:06.242Z,986.97
2022-12-12T04:29:06.229Z,986.94
2022-12-12T04:30:06.213Z,986.96
2022-12-12T04:31:06.213Z,987.03
2022-12-12T04:32:06.245Z,986.97
2022-12-12T04:33:06.213Z,986.98
2022-12-12T04:34:06.189Z,987.01
2022-12-12T04:35:06.205Z,987.02
2022-12-12T04:36:06.173Z,987.07
2022-12-12T04:37:06.159Z,987.01
2022-12-12T04:38:06.156Z,987.04
2022-12-12T04:39:06.171Z,987.05
2022-12-12T04:40:06.142Z,987.06
2022-12-12T04:41:06.133Z,987.04
2022-12-12T04:42:06.122Z,987.05
2022-12-12T04:43:06.122Z,987.06
2022-12-12T04:44:06.126Z,987.00
2022-12-12T04:45:06.106Z,987.07
2022-12-12T04:46:06.116Z,987.00
2022-12-12T04:47:06.084Z,987.06
2022-12-12T04:48:06.080Z,987.01
2022-12-12T04:49:06.078Z,987.06
2022-12-12T04:50:06.062Z,987.16
2022-12-12T04:51:06.072Z,987.12
2022-12-12T04:52:06.051Z,987.08
2022-12-12T04:53:06.039Z,987.09
2022-12-12T04:54:06.037Z,987.11
2022-12-12T04:55:06.039Z,987.08
2022-12-12T04:56:06.017Z,987.12
2022-12-12T04:57:06.010Z,987.19
2022-12-12T04:58:06.014Z,987.09
2022-12-12T04:59:06.018Z,987.15
2022-12-12T05:00:05.984Z,987.15
2022-12-12T05:01:07.919Z,987.19
2022-12-12T05:02:06.018Z,987.19
2022-12-12T05:03:05.963Z,987.25
2022-12-12T05:04:05.967Z,987.17
2022-12-12T05:05:05.957Z,987.22
2022-12-12T05:06:05.957Z,987.29
2022-12-12T05:07:05.935Z,987.27
2022-12-12T05:08:05.987Z,987.30
2022-12-12T05:09:05.930Z,987.26
2022-12-12T05:10:05.920Z,987.29
2022-12-12T05:11:05.909Z,987.34
2022-12-12T05:12:05.902Z,987.30
2022-12-12T05:13:05.899Z,987.30
2022-12-12T05:14:05.898Z,987.24
2022-12-12T05:15:05.892Z,987.26
2022-12-12T05:16:05.884Z,987.35
2022-12-12T05:17:05.886Z,987.31
2022-12-12T05:18:05.856Z,987.33
2022-12-12T05:19:05.863Z,987.33
2022-12-12T05:20:05.868Z,987.34
2022-12-12T05:21:05.875Z,987.31
2022-12-12T05:22:05.851Z,987.31
2022-12-12T05:23:05.829Z,987.32
2022-12-12T05:24:05.839Z,987.31
2022-12-12T05:25:05.802Z,987.33
2022-12-12T05:26:05.800Z,987.28
2022-12-12T05:27:05.800Z,987.33
2022-12-12T05:28:05.782Z,987.34
2022-12-12T05:29:07.664Z,987.34
2022-12-12T05:30:06.771Z,987.37
2022-12-12T05:31:05.896Z,987.37
2022-12-12T05:32:05.754Z,987.37
2022-12-12T05:33:05.742Z,987.36
2022-12-12T05:34:05.739Z,987.38
2022-12-12T05:35:05.728Z,987.34
2022-12-12T05:36:05.724Z,987.34
2022-12-12T05:37:05.720Z,987.34
2022-12-12T05:38:05.714Z,987.33
2022-12-12T05:39:05.700Z,987.33
2022-12-12T05:40:05.694Z,987.37
2022-12-12T05:41:06.371Z,987.35
2022-12-12T05:42:05.683Z,987.42
2022-12-12T05:43:05.672Z,987.40
2022-12-12T05:44:05.666Z,987.40
2022-12-12T05:45:05.658Z,987.39
2022-12-12T05:46:06.516Z,987.40
2022-12-12T05:47:05.659Z,987.42
2022-12-12T05:48:05.646Z,987.36
2022-12-12T05:49:05.625Z,987.42
2022-12-12T05:50:05.624Z,987.46
2022-12-12T05:51:05.610Z,987.48
2022-12-12T05:52:06.377Z,987.46
2022-12-12T05:53:05.604Z,987.47
2022-12-12T05:54:05.590Z,987.52
2022-12-12T05:55:05.579Z,987.51
2022-12-12T05:56:05.572Z,987.48
2022-12-12T05:57:05.575Z,987.48
2022-12-12T05:58:05.561Z,987.50
2022-12-12T05:59:05.556Z,987.59
2022-12-12T06:00:05.541Z,987.52
2022-12-12T06:01:05.565Z,987.53
2022-12-12T06:02:05.570Z,987.51
2022-12-12T06:03:05.536Z,987.51
2022-12-12T06:04:05.575Z,987.52
2022-12-12T06:05:05.505Z,987.53
2022-12-12T06:06:05.499Z,987.49
2022-12-12T06:07:05.521Z,987.49
2022-12-12T06:08:05.528Z,987.53
2022-12-12T06:09:05.497Z,987.53
2022-12-12T06:10:05.466Z,987.54
2022-12-12T06:11:05.472Z,987.56
2022-12-12T06:12:06.375Z,987.59
2022-12-12T06:13:05.444Z,987.60
2022-12-12T06:14:05.446Z,987.61
2022-12-12T06:15:05.981Z,987.57
2022-12-12T06:16:05.453Z,987.60
2022-12-12T06:17:05.657Z,987.63
2022-12-12T06:18:05.406Z,987.63
2022-12-12T06:19:05.407Z,987.66
2022-12-12T06:20:05.390Z,987.64
2022-12-12T06:21:05.424Z,987.62
2022-12-12T06:22:05.388Z,987.69
2022-12-12T06:23:05.365Z,987.65
2022-12-12T06:24:05.369Z,987.62
2022-12-12T06:25:05.352Z,987.61
2022-12-12T06:26:05.344Z,987.63
2022-12-12T06:27:05.335Z,987.58
2022-12-12T06:28:05.325Z,987.61
2022-12-12T06:29:05.327Z,987.60
2022-12-12T06:30:05.315Z,987.67
2022-12-12T06:31:09.801Z,987.61
2022-12-12T06:32:07.302Z,987.63
2022-12-12T06:33:05.290Z,987.61
2022-12-12T06:34:05.290Z,987.62
2022-12-12T06:35:05.282Z,987.65
2022-12-12T06:36:05.266Z,987.66
2022-12-12T06:37:05.271Z,987.68
2022-12-12T06:38:05.253Z,987.66
2022-12-12T06:39:05.249Z,987.69
2022-12-12T06:40:05.247Z,987.73
2022-12-12T06:41:05.228Z,987.71
2022-12-12T06:42:05.228Z,987.72
2022-12-12T06:43:05.232Z,987.70
2022-12-12T06:44:05.225Z,987.82
2022-12-12T06:45:05.203Z,987.75
2022-12-12T06:46:05.288Z,987.77
2022-12-12T06:47:05.216Z,987.72
2022-12-12T06:48:05.174Z,987.82
2022-12-12T06:49:05.172Z,987.78
2022-12-12T06:50:05.158Z,987.80
2022-12-12T06:51:05.158Z,987.83
2022-12-12T06:52:05.148Z,987.82
2022-12-12T06:53:05.142Z,987.85
2022-12-12T06:54:05.153Z,987.83
2022-12-12T06:55:05.126Z,987.94
2022-12-12T06:56:05.122Z,987.82
2022-12-12T06:57:05.110Z,987.84
2022-12-12T06:58:05.097Z,987.78
2022-12-12T06:59:05.089Z,987.85
2022-12-12T07:00:05.084Z,987.95
2022-12-12T07:01:05.083Z,987.91
2022-12-12T07:02:05.104Z,987.95
2022-12-12T07:03:05.125Z,987.86
2022-12-12T07:04:05.067Z,987.96
2022-12-12T07:05:05.083Z,987.87
2022-12-12T07:06:05.036Z,987.91
2022-12-12T07:07:05.036Z,987.95
2022-12-12T07:08:05.082Z,987.94
2022-12-12T07:09:05.031Z,987.94
2022-12-12T07:10:05.881Z,987.91
2022-12-12T07:11:05.007Z,987.91
2022-12-12T07:12:04.989Z,987.91
2022-12-12T07:13:04.988Z,987.96
2022-12-12T07:14:04.977Z,987.99
2022-12-12T07:15:04.973Z,988.00
2022-12-12T07:16:05.010Z,987.96
2022-12-12T07:17:04.952Z,988.01
2022-12-12T07:18:04.944Z,987.94
2022-12-12T07:19:05.456Z,987.97
2022-12-12T07:20:04.938Z,987.91
2022-12-12T07:21:04.928Z,987.98
2022-12-12T07:22:09.808Z,987.99
2022-12-12T07:23:06.913Z,988.07
2022-12-12T07:24:04.905Z,988.06
2022-12-12T07:25:04.905Z,988.00
2022-12-12T07:26:04.889Z,988.09
2022-12-12T07:27:04.887Z,988.10
2022-12-12T07:28:04.874Z,988.08
2022-12-12T07:29:05.468Z,988.08
2022-12-12T07:30:04.867Z,988.08
2022-12-12T07:31:04.925Z,988.11
2022-12-12T07:32:04.847Z,988.15
2022-12-12T07:33:04.838Z,988.17
2022-12-12T07:34:04.826Z,988.15
2022-12-12T07:35:04.820Z,988.21
2022-12-12T07:36:05.392Z,988.12
2022-12-12T07:37:04.812Z,988.15
2022-12-12T07:38:04.804Z,988.22
2022-12-12T07:39:04.794Z,988.20
2022-12-12T07:40:04.781Z,988.21
2022-12-12T07:41:04.793Z,988.20
2022-12-12T07:42:04.766Z,988.23
2022-12-12T07:43:04.775Z,988.17
2022-12-12T07:44:04.761Z,988.22
2022-12-12T07:45:04.751Z,988.21
2022-12-12T07:46:04.771Z,988.36
2022-12-12T07:47:04.735Z,988.35
2022-12-12T07:48:04.737Z,988.32
2022-12-12T07:49:04.723Z,988.39
2022-12-12T07:50:04.704Z,988.37
2022-12-12T07:51:04.710Z,988.39
2022-12-12T07:52:04.697Z,988.30
2022-12-12T07:53:04.684Z,988.42
2022-12-12T07:54:04.685Z,988.43
2022-12-12T07:55:04.685Z,988.37
2022-12-12T07:56:04.665Z,988.33
2022-12-12T07:57:04.651Z,988.31
2022-12-12T07:58:04.643Z,988.36
2022-12-12T07:59:04.646Z,988.30
2022-12-12T08:00:04.641Z,988.39
2022-12-12T08:01:06.031Z,988.37
2022-12-12T08:02:04.686Z,988.40
2022-12-12T08:03:04.607Z,988.39
2022-12-12T08:04:04.625Z,988.40
2022-12-12T08:05:04.648Z,988.39
2022-12-12T08:06:04.612Z,988.39
2022-12-12T08:07:08.448Z,988.44
2022-12-12T08:08:05.626Z,988.50
2022-12-12T08:09:04.565Z,988.48
2022-12-12T08:10:04.597Z,988.48
2022-12-12T08:11:04.558Z,988.51
2022-12-12T08:12:04.545Z,988.51
2022-12-12T08:13:04.541Z,988.51
2022-12-12T08:14:09.452Z,988.51
2022-12-12T08:15:06.522Z,988.55
2022-12-12T08:16:04.833Z,988.56
2022-12-12T08:17:04.511Z,988.52
2022-12-12T08:18:04.500Z,988.56
2022-12-12T08:19:04.532Z,988.58
2022-12-12T08:20:04.482Z,988.57
2022-12-12T08:21:04.487Z,988.60
2022-12-12T08:22:04.464Z,988.63
2022-12-12T08:23:05.468Z,988.63
2022-12-12T08:24:04.462Z,988.63
2022-12-12T08:25:04.448Z,988.62
2022-12-12T08:26:04.443Z,988.63
2022-12-12T08:27:15.381Z,988.65
2022-12-12T08:28:05.428Z,988.70
2022-12-12T08:29:04.422Z,988.64
2022-12-12T08:30:04.970Z,988.67
2022-12-12T08:31:04.996Z,988.66
2022-12-12T08:32:04.412Z,988.68
2022-12-12T08:33:08.061Z,988.70
2022-12-12T08:34:05.386Z,988.69
2022-12-12T08:35:04.426Z,988.68
2022-12-12T08:36:04.365Z,988.68
2022-12-12T08:37:04.356Z,988.68
2022-12-12T08:38:04.360Z,988.71
2022-12-12T08:39:04.348Z,988.76
2022-12-12T08:40:04.335Z,988.73
2022-12-12T08:41:04.330Z,988.75
2022-12-12T08:42:04.328Z,988.70
2022-12-12T08:43:04.323Z,988.76
2022-12-12T08:44:04.314Z,988.82
2022-12-12T08:45:04.309Z,988.81
2022-12-12T08:46:04.300Z,988.79
2022-12-12T08:47:04.295Z,988.81
2022-12-12T08:48:04.274Z,988.80
2022-12-12T08:49:04.269Z,988.79
2022-12-12T08:50:04.278Z,988.89
2022-12-12T08:51:04.259Z,988.84
2022-12-12T08:52:04.253Z,988.83
2022-12-12T08:53:04.240Z,988.84
2022-12-12T08:54:04.231Z,988.84
2022-12-12T08:55:04.222Z,988.83
2022-12-12T08:56:04.227Z,988.80
2022-12-12T08:57:04.206Z,988.80
2022-12-12T08:58:04.200Z,988.78
2022-12-12T08:59:04.197Z,988.79
2022-12-12T09:00:04.200Z,988.81
2022-12-12T09:01:04.181Z,988.80
2022-12-12T09:02:04.351Z,988.80
2022-12-12T09:03:04.272Z,988.80
2022-12-12T09:04:04.161Z,988.83
2022-12-12T09:05:04.146Z,988.78
2022-12-12T09:06:04.137Z,988.79
2022-12-12T09:07:08.474Z,988.84
2022-12-12T09:08:05.180Z,988.85
2022-12-12T09:09:04.108Z,988.87
2022-12-12T09:10:04.100Z,988.88
2022-12-12T09:11:04.099Z,988.89
2022-12-12T09:12:04.092Z,988.89
2022-12-12T09:13:04.074Z,988.90
2022-12-12T09:14:04.079Z,988.83
2022-12-12T09:15:04.073Z,988.84
2022-12-12T09:16:04.164Z,988.92
2022-12-12T09:17:04.065Z,988.91
2022-12-12T09:18:04.038Z,988.90
2022-12-12T09:19:04.034Z,988.88
2022-12-12T09:20:04.032Z,988.85
2022-12-12T09:21:04.020Z,988.91
2022-12-12T09:22:04.021Z,988.88
2022-12-12T09:23:04.001Z,988.89
2022-12-12T09:24:03.990Z,988.87
2022-12-12T09:25:03.984Z,988.86
2022-12-12T09:26:03.992Z,988.86
2022-12-12T09:27:03.973Z,988.92
2022-12-12T09:28:03.983Z,988.90
2022-12-12T09:29:03.955Z,988.91
2022-12-12T09:30:03.952Z,988.93
2022-12-12T09:31:04.003Z,988.92
2022-12-12T09:32:03.932Z,988.91
2022-12-12T09:33:03.942Z,988.98
2022-12-12T09:34:03.930Z,989.00
2022-12-12T09:35:03.909Z,988.97
2022-12-12T09:36:03.899Z,989.00
2022-12-12T09:37:03.903Z,989.01
2022-12-12T09:38:04.308Z,988.97
2022-12-12T09:39:03.913Z,988.96
2022-12-12T09:40:03.871Z,989.04
2022-12-12T09:41:03.884Z,989.00
2022-12-12T09:42:03.856Z,989.03
2022-12-12T09:43:03.851Z,989.01
2022-12-12T09:44:03.850Z,989.01
2022-12-12T09:45:03.831Z,989.04
2022-12-12T09:46:03.875Z,989.04
2022-12-12T09:47:03.817Z,989.02
2022-12-12T09:48:03.818Z,989.03
2022-12-12T09:49:03.820Z,989.07
2022-12-12T09:50:03.799Z,989.08
2022-12-12T09:51:03.802Z,989.09
2022-12-12T09:52:03.783Z,989.11
2022-12-12T09:53:03.783Z,989.13
2022-12-12T09:54:03.779Z,989.12
2022-12-12T09:55:03.764Z,989.10
2022-12-12T09:56:04.470Z,989.04
2022-12-12T09:57:03.737Z,989.01
2022-12-12T09:58:03.741Z,989.08
2022-12-12T09:59:03.746Z,989.09
2022-12-12T10:00:03.747Z,989.09
2022-12-12T10:01:03.746Z,989.04
2022-12-12T10:02:03.735Z,989.13
2022-12-12T10:03:03.702Z,989.10
2022-12-12T10:04:03.707Z,989.04
2022-12-12T10:05:03.695Z,989.07
2022-12-12T10:06:28.543Z,989.07
2022-12-12T10:07:05.676Z,989.10
2022-12-12T10:08:03.743Z,989.05
2022-12-12T10:09:03.655Z,989.10
2022-12-12T10:10:03.654Z,989.06
2022-12-12T10:11:03.649Z,989.08
2022-12-12T10:12:08.061Z,989.07
2022-12-12T10:13:04.634Z,989.11
2022-12-12T10:14:03.618Z,989.14
2022-12-12T10:15:03.609Z,989.10
2022-12-12T10:16:03.679Z,989.09
2022-12-12T10:17:03.602Z,989.07
2022-12-12T10:18:03.592Z,989.14
2022-12-12T10:19:03.613Z,989.11
2022-12-12T10:20:03.620Z,989.13
2022-12-12T10:21:03.566Z,989.17
2022-12-12T10:22:03.560Z,989.09
2022-12-12T10:23:03.551Z,989.13
2022-12-12T10:24:03.543Z,989.09
2022-12-12T10:25:03.543Z,989.09
2022-12-12T10:26:03.549Z,989.12
2022-12-12T10:27:03.528Z,989.08
2022-12-12T10:28:03.514Z,989.11
2022-12-12T10:29:03.507Z,989.05
2022-12-12T10:30:03.498Z,989.07
2022-12-12T10:31:03.490Z,989.06
2022-12-12T10:32:03.525Z,989.14
2022-12-12T10:33:03.485Z,989.10
2022-12-12T10:34:03.467Z,989.06
2022-12-12T10:35:03.485Z,989.02
2022-12-12T10:36:03.470Z,989.09
2022-12-12T10:37:03.475Z,989.08
2022-12-12T10:38:03.480Z,989.04
2022-12-12T10:39:03.433Z,989.08
2022-12-12T10:40:03.440Z,989.03
2022-12-12T10:41:03.415Z,989.13
2022-12-12T10:42:03.404Z,989.06
2022-12-12T10:43:03.402Z,989.08
2022-12-12T10:44:03.404Z,989.09
2022-12-12T10:45:03.397Z,989.06
2022-12-12T10:46:03.462Z,989.05
2022-12-12T10:47:03.413Z,989.06
2022-12-12T10:48:03.362Z,989.04
2022-12-12T10:49:03.358Z,989.06
2022-12-12T10:50:05.426Z,989.10
2022-12-12T10:51:04.906Z,989.06
2022-12-12T10:52:03.339Z,989.07
2022-12-12T10:53:03.316Z,989.01
2022-12-12T10:54:03.980Z,989.02
2022-12-12T10:55:03.301Z,989.03
2022-12-12T10:56:03.310Z,989.00
2022-12-12T10:57:03.287Z,989.05
2022-12-12T10:58:03.307Z,988.99
2022-12-12T10:59:03.276Z,989.01
2022-12-12T11:00:03.263Z,989.01
2022-12-12T11:01:03.320Z,988.98
2022-12-12T11:02:11.136Z,988.99
2022-12-12T11:03:05.315Z,988.96
2022-12-12T11:04:03.278Z,989.03
2022-12-12T11:05:03.235Z,989.06
2022-12-12T11:06:03.217Z,988.99
2022-12-12T11:07:03.212Z,989.00
2022-12-12T11:08:03.275Z,988.96
2022-12-12T11:09:03.204Z,989.00
2022-12-12T11:10:03.192Z,988.96
2022-12-12T11:11:03.179Z,988.98
2022-12-12T11:12:03.177Z,988.97
2022-12-12T11:13:03.172Z,988.99
2022-12-12T11:14:04.153Z,988.95
2022-12-12T11:15:03.152Z,988.94
2022-12-12T11:16:03.208Z,988.94
2022-12-12T11:17:03.595Z,988.91
2022-12-12T11:18:06.391Z,988.95
2022-12-12T11:19:04.112Z,988.99
2022-12-12T11:20:03.109Z,988.97
2022-12-12T11:21:03.099Z,988.98
2022-12-12T11:22:03.095Z,988.95
2022-12-12T11:23:03.122Z,988.96
2022-12-12T11:24:03.080Z,989.01
2022-12-12T11:25:03.072Z,989.01
2022-12-12T11:26:03.059Z,989.04
2022-12-12T11:27:04.055Z,989.04
2022-12-12T11:28:06.617Z,988.97
2022-12-12T11:29:06.979Z,988.98
2022-12-12T11:30:03.033Z,989.01
2022-12-12T11:31:03.030Z,989.01
2022-12-12T11:32:03.045Z,989.01
2022-12-12T11:33:04.484Z,989.00
2022-12-12T11:34:03.016Z,989.02
2022-12-12T11:35:03.000Z,989.04
2022-12-12T11:36:03.001Z,989.05
2022-12-12T11:37:02.979Z,989.05
2022-12-12T11:38:02.972Z,989.07
2022-12-12T11:39:03.923Z,989.04
2022-12-12T11:40:02.962Z,989.04
2022-12-12T11:41:02.962Z,989.05
2022-12-12T11:42:02.945Z,989.05
2022-12-12T11:43:02.940Z,988.99
2022-12-12T11:44:02.923Z,989.03
2022-12-12T11:45:02.928Z,989.02
2022-12-12T11:46:02.986Z,988.93
2022-12-12T11:47:02.908Z,988.98
2022-12-12T11:48:02.893Z,988.96
2022-12-12T11:49:02.886Z,988.98
2022-12-12T11:50:09.339Z,989.00
2022-12-12T11:51:04.875Z,988.98
2022-12-12T11:52:02.891Z,989.00
2022-12-12T11:53:02.860Z,988.97
2022-12-12T11:54:02.875Z,988.98
2022-12-12T11:55:02.856Z,989.00
2022-12-12T11:56:02.849Z,988.96
2022-12-12T11:57:02.847Z,988.96
2022-12-12T11:58:04.093Z,988.95
2022-12-12T11:59:05.998Z,988.90
2022-12-12T12:00:02.901Z,988.90
2022-12-12T12:01:02.808Z,988.92
2022-12-12T12:02:02.794Z,988.92
2022-12-12T12:03:02.850Z,988.90
2022-12-12T12:04:02.876Z,988.87
2022-12-12T12:05:02.831Z,988.84
2022-12-12T12:06:04.402Z,988.81
2022-12-12T12:07:02.760Z,988.81
2022-12-12T12:08:03.035Z,988.80
2022-12-12T12:09:03.887Z,988.81
2022-12-12T12:11:09.068Z,988.80
2022-12-12T12:12:09.024Z,988.83
2022-12-12T12:13:09.022Z,988.82
2022-12-12T12:14:09.011Z,988.79
2022-12-12T12:15:09.008Z,988.81
2022-12-12T12:16:09.009Z,988.89
2022-12-12T12:17:08.984Z,988.83
2022-12-12T12:18:09.010Z,988.87
2022-12-12T12:19:08.968Z,988.84
2022-12-12T12:20:08.971Z,988.87
2022-12-12T12:21:08.963Z,988.87
2022-12-12T12:22:08.952Z,988.89
2022-12-12T12:23:08.939Z,988.84
2022-12-12T12:24:10.030Z,988.88
2022-12-12T12:25:10.025Z,988.89
2022-12-12T12:26:10.005Z,988.93
2022-12-12T12:27:10.005Z,988.88
2022-12-12T12:28:09.992Z,988.84
2022-12-12T12:29:09.985Z,988.87
2022-12-12T12:30:09.987Z,988.87
2022-12-12T12:31:10.046Z,988.88
2022-12-12T12:32:09.967Z,988.87